sensor_id;sensor_type;location;lat;lon;timestamp;P1;durP1;ratioP1;P2;durP2;ratioP2
22665;SDS011;11499;49.486;11.104;2022-10-16T00:01:09;2.43;;;2.07;;
22665;SDS011;11499;49.486;11.104;2022-10-16T00:03:37;2.63;;;2.00;;
22665;SDS011;11499;49.486;11.104;2022-10-16T00:06:04;3.08;;;2.10;;
22665;SDS011;11499;49.486;11.104;2022-10-16T00:08:30;3.85;;;2.20;;
22665;SDS011;11499;49.486;11.104;2022-10-16T00:11:06;3.90;;;1.85;;
22665;SDS011;11499;49.486;11.104;2022-10-16T00:16:16;4.80;;;2.10;;
22665;SDS011;11499;49.486;11.104;2022-10-16T00:18:43;2.55;;;2.00;;
22665;SDS011;11499;49.486;11.104;2022-10-16T00:21:11;5.82;;;2.20;;
22665;SDS011;11499;49.486;11.104;2022-10-16T00:23:40;4.25;;;2.10;;
22665;SDS011;11499;49.486;11.104;2022-10-16T00:26:10;2.03;;;1.83;;
22665;SDS011;11499;49.486;11.104;2022-10-16T00:28:37;3.97;;;2.13;;
22665;SDS011;11499;49.486;11.104;2022-10-16T00:31:08;2.50;;;2.00;;
22665;SDS011;11499;49.486;11.104;2022-10-16T00:33:36;2.17;;;1.80;;
22665;SDS011;11499;49.486;11.104;2022-10-16T00:36:03;4.47;;;2.10;;
22665;SDS011;11499;49.486;11.104;2022-10-16T00:38:29;4.35;;;2.53;;
22665;SDS011;11499;49.486;11.104;2022-10-16T00:47:10;4.53;;;2.35;;
22665;SDS011;11499;49.486;11.104;2022-10-16T00:49:38;2.40;;;2.20;;
22665;SDS011;11499;49.486;11.104;2022-10-16T00:52:03;4.73;;;2.00;;
22665;SDS011;11499;49.486;11.104;2022-10-16T00:54:31;3.37;;;1.83;;
22665;SDS011;11499;49.486;11.104;2022-10-16T00:56:58;2.85;;;2.10;;
22665;SDS011;11499;49.486;11.104;2022-10-16T00:59:28;3.37;;;1.83;;
22665;SDS011;11499;49.486;11.104;2022-10-16T01:01:56;4.17;;;2.13;;
22665;SDS011;11499;49.486;11.104;2022-10-16T01:04:23;2.57;;;2.07;;
22665;SDS011;11499;49.486;11.104;2022-10-16T01:12:06;3.40;;;2.00;;
22665;SDS011;11499;49.486;11.104;2022-10-16T01:14:48;2.33;;;2.07;;
22665;SDS011;11499;49.486;11.104;2022-10-16T01:17:20;3.23;;;1.90;;
22665;SDS011;11499;49.486;11.104;2022-10-16T01:22:28;3.47;;;2.20;;
22665;SDS011;11499;49.486;11.104;2022-10-16T01:25:09;5.47;;;2.17;;
22665;SDS011;11499;49.486;11.104;2022-10-16T01:27:42;2.83;;;2.00;;
22665;SDS011;11499;49.486;11.104;2022-10-16T01:30:17;3.30;;;2.40;;
22665;SDS011;11499;49.486;11.104;2022-10-16T01:32:57;3.33;;;1.95;;
22665;SDS011;11499;49.486;11.104;2022-10-16T01:35:30;4.30;;;2.20;;
22665;SDS011;11499;49.486;11.104;2022-10-16T01:40:22;3.00;;;2.20;;
22665;SDS011;11499;49.486;11.104;2022-10-16T01:42:52;6.40;;;2.23;;
22665;SDS011;11499;49.486;11.104;2022-10-16T01:45:24;3.00;;;2.20;;
22665;SDS011;11499;49.486;11.104;2022-10-16T01:47:49;3.30;;;2.10;;
22665;SDS011;11499;49.486;11.104;2022-10-16T01:50:18;5.60;;;2.13;;
22665;SDS011;11499;49.486;11.104;2022-10-16T01:52:46;3.10;;;2.40;;
22665;SDS011;11499;49.486;11.104;2022-10-16T01:55:16;4.53;;;2.20;;
22665;SDS011;11499;49.486;11.104;2022-10-16T01:57:46;3.10;;;2.00;;
22665;SDS011;11499;49.486;11.104;2022-10-16T02:00:15;8.05;;;2.45;;
22665;SDS011;11499;49.486;11.104;2022-10-16T02:02:43;2.27;;;2.00;;
22665;SDS011;11499;49.486;11.104;2022-10-16T02:07:52;5.50;;;2.53;;
22665;SDS011;11499;49.486;11.104;2022-10-16T02:10:18;3.10;;;2.50;;
22665;SDS011;11499;49.486;11.104;2022-10-16T02:12:45;6.30;;;2.03;;
22665;SDS011;11499;49.486;11.104;2022-10-16T02:15:15;3.87;;;2.03;;
22665;SDS011;11499;49.486;11.104;2022-10-16T02:17:41;2.03;;;1.83;;
22665;SDS011;11499;49.486;11.104;2022-10-16T02:20:06;3.30;;;2.33;;
22665;SDS011;11499;49.486;11.104;2022-10-16T02:22:34;3.53;;;2.00;;
22665;SDS011;11499;49.486;11.104;2022-10-16T02:25:08;5.53;;;1.90;;
22665;SDS011;11499;49.486;11.104;2022-10-16T02:27:40;2.47;;;1.73;;
22665;SDS011;11499;49.486;11.104;2022-10-16T02:36:05;2.20;;;2.00;;
22665;SDS011;11499;49.486;11.104;2022-10-16T02:38:32;4.25;;;2.17;;
22665;SDS011;11499;49.486;11.104;2022-10-16T02:40:58;4.53;;;2.05;;
22665;SDS011;11499;49.486;11.104;2022-10-16T02:43:24;3.28;;;2.00;;
22665;SDS011;11499;49.486;11.104;2022-10-16T02:45:50;2.60;;;1.98;;
22665;SDS011;11499;49.486;11.104;2022-10-16T02:48:16;2.28;;;2.03;;
22665;SDS011;11499;49.486;11.104;2022-10-16T02:50:41;2.43;;;2.20;;
22665;SDS011;11499;49.486;11.104;2022-10-16T02:53:07;2.70;;;1.90;;
22665;SDS011;11499;49.486;11.104;2022-10-16T02:55:32;2.40;;;1.90;;
22665;SDS011;11499;49.486;11.104;2022-10-16T02:57:58;3.90;;;2.10;;
22665;SDS011;11499;49.486;11.104;2022-10-16T03:03:11;4.37;;;2.50;;
22665;SDS011;11499;49.486;11.104;2022-10-16T03:05:37;3.20;;;1.97;;
22665;SDS011;11499;49.486;11.104;2022-10-16T03:08:02;6.30;;;2.63;;
22665;SDS011;11499;49.486;11.104;2022-10-16T03:10:28;3.63;;;1.97;;
22665;SDS011;11499;49.486;11.104;2022-10-16T03:12:54;6.23;;;2.47;;
22665;SDS011;11499;49.486;11.104;2022-10-16T03:15:19;5.33;;;2.17;;
22665;SDS011;11499;49.486;11.104;2022-10-16T03:17:45;4.80;;;2.43;;
22665;SDS011;11499;49.486;11.104;2022-10-16T03:20:10;5.07;;;2.40;;
22665;SDS011;11499;49.486;11.104;2022-10-16T03:22:36;6.50;;;2.40;;
22665;SDS011;11499;49.486;11.104;2022-10-16T03:25:01;2.20;;;2.00;;
22665;SDS011;11499;49.486;11.104;2022-10-16T03:30:43;5.67;;;2.20;;
22665;SDS011;11499;49.486;11.104;2022-10-16T03:33:08;5.40;;;2.27;;
22665;SDS011;11499;49.486;11.104;2022-10-16T03:35:34;2.57;;;2.00;;
22665;SDS011;11499;49.486;11.104;2022-10-16T03:38:00;4.77;;;2.07;;
22665;SDS011;11499;49.486;11.104;2022-10-16T03:40:25;2.87;;;2.10;;
22665;SDS011;11499;49.486;11.104;2022-10-16T03:42:51;4.53;;;2.30;;
22665;SDS011;11499;49.486;11.104;2022-10-16T03:45:16;2.57;;;1.93;;
22665;SDS011;11499;49.486;11.104;2022-10-16T03:47:42;3.63;;;2.40;;
22665;SDS011;11499;49.486;11.104;2022-10-16T03:50:08;3.07;;;2.00;;
22665;SDS011;11499;49.486;11.104;2022-10-16T03:52:34;2.33;;;2.13;;
22665;SDS011;11499;49.486;11.104;2022-10-16T03:57:39;2.40;;;2.20;;
22665;SDS011;11499;49.486;11.104;2022-10-16T04:00:05;2.90;;;2.07;;
22665;SDS011;11499;49.486;11.104;2022-10-16T04:02:31;2.20;;;2.00;;
22665;SDS011;11499;49.486;11.104;2022-10-16T04:04:56;2.20;;;2.00;;
22665;SDS011;11499;49.486;11.104;2022-10-16T04:07:22;4.97;;;2.07;;
22665;SDS011;11499;49.486;11.104;2022-10-16T04:09:47;2.83;;;1.97;;
22665;SDS011;11499;49.486;11.104;2022-10-16T04:12:13;2.37;;;2.10;;
22665;SDS011;11499;49.486;11.104;2022-10-16T04:14:38;3.93;;;2.13;;
22665;SDS011;11499;49.486;11.104;2022-10-16T04:17:04;2.17;;;1.97;;
22665;SDS011;11499;49.486;11.104;2022-10-16T04:19:29;3.63;;;2.30;;
22665;SDS011;11499;49.486;11.104;2022-10-16T04:25:04;4.63;;;2.63;;
22665;SDS011;11499;49.486;11.104;2022-10-16T04:27:29;3.47;;;2.27;;
22665;SDS011;11499;49.486;11.104;2022-10-16T04:29:56;5.10;;;2.20;;
22665;SDS011;11499;49.486;11.104;2022-10-16T04:32:24;4.53;;;2.40;;
22665;SDS011;11499;49.486;11.104;2022-10-16T04:34:50;3.03;;;2.30;;
22665;SDS011;11499;49.486;11.104;2022-10-16T04:37:16;3.30;;;2.00;;
22665;SDS011;11499;49.486;11.104;2022-10-16T04:39:41;2.40;;;1.93;;
22665;SDS011;11499;49.486;11.104;2022-10-16T04:42:07;3.13;;;2.10;;
22665;SDS011;11499;49.486;11.104;2022-10-16T04:44:32;3.37;;;2.20;;
22665;SDS011;11499;49.486;11.104;2022-10-16T04:46:58;5.37;;;2.37;;
22665;SDS011;11499;49.486;11.104;2022-10-16T04:49:23;3.17;;;2.17;;
22665;SDS011;11499;49.486;11.104;2022-10-16T04:54:37;3.83;;;2.30;;
22665;SDS011;11499;49.486;11.104;2022-10-16T04:57:02;5.43;;;2.27;;
22665;SDS011;11499;49.486;11.104;2022-10-16T04:59:29;4.97;;;2.20;;
22665;SDS011;11499;49.486;11.104;2022-10-16T05:01:55;2.87;;;1.90;;
22665;SDS011;11499;49.486;11.104;2022-10-16T05:04:20;5.33;;;2.37;;
22665;SDS011;11499;49.486;11.104;2022-10-16T05:06:47;2.07;;;1.97;;
22665;SDS011;11499;49.486;11.104;2022-10-16T05:09:13;4.47;;;2.10;;
22665;SDS011;11499;49.486;11.104;2022-10-16T05:11:38;2.47;;;2.27;;
22665;SDS011;11499;49.486;11.104;2022-10-16T05:14:04;3.13;;;2.23;;
22665;SDS011;11499;49.486;11.104;2022-10-16T05:16:29;3.33;;;2.30;;
22665;SDS011;11499;49.486;11.104;2022-10-16T05:20:21;3.80;;;2.10;;
22665;SDS011;11499;49.486;11.104;2022-10-16T05:22:47;2.40;;;2.17;;
22665;SDS011;11499;49.486;11.104;2022-10-16T05:25:13;2.97;;;2.10;;
22665;SDS011;11499;49.486;11.104;2022-10-16T05:27:38;5.17;;;2.30;;
22665;SDS011;11499;49.486;11.104;2022-10-16T05:30:04;4.63;;;2.10;;
22665;SDS011;11499;49.486;11.104;2022-10-16T05:32:30;3.20;;;2.70;;
22665;SDS011;11499;49.486;11.104;2022-10-16T05:34:56;4.10;;;2.30;;
22665;SDS011;11499;49.486;11.104;2022-10-16T05:37:21;4.20;;;2.13;;
22665;SDS011;11499;49.486;11.104;2022-10-16T05:39:47;3.60;;;2.30;;
22665;SDS011;11499;49.486;11.104;2022-10-16T05:42:12;2.63;;;2.13;;
22665;SDS011;11499;49.486;11.104;2022-10-16T05:47:47;4.93;;;2.40;;
22665;SDS011;11499;49.486;11.104;2022-10-16T05:50:12;3.07;;;2.40;;
22665;SDS011;11499;49.486;11.104;2022-10-16T05:52:38;3.37;;;2.47;;
22665;SDS011;11499;49.486;11.104;2022-10-16T05:55:04;6.37;;;2.80;;
22665;SDS011;11499;49.486;11.104;2022-10-16T05:57:29;4.57;;;2.97;;
22665;SDS011;11499;49.486;11.104;2022-10-16T05:59:55;2.50;;;2.30;;
22665;SDS011;11499;49.486;11.104;2022-10-16T06:02:21;3.17;;;2.33;;
22665;SDS011;11499;49.486;11.104;2022-10-16T06:04:46;4.40;;;2.50;;
22665;SDS011;11499;49.486;11.104;2022-10-16T06:07:12;2.60;;;2.40;;
22665;SDS011;11499;49.486;11.104;2022-10-16T06:09:37;6.17;;;2.10;;
22665;SDS011;11499;49.486;11.104;2022-10-16T06:14:45;4.53;;;2.47;;
22665;SDS011;11499;49.486;11.104;2022-10-16T06:17:12;6.40;;;2.20;;
22665;SDS011;11499;49.486;11.104;2022-10-16T06:19:40;2.30;;;2.10;;
22665;SDS011;11499;49.486;11.104;2022-10-16T06:22:06;5.60;;;2.40;;
22665;SDS011;11499;49.486;11.104;2022-10-16T06:24:31;2.60;;;2.30;;
22665;SDS011;11499;49.486;11.104;2022-10-16T06:26:57;3.17;;;2.30;;
22665;SDS011;11499;49.486;11.104;2022-10-16T06:29:22;2.40;;;2.10;;
22665;SDS011;11499;49.486;11.104;2022-10-16T06:31:48;4.97;;;2.22;;
22665;SDS011;11499;49.486;11.104;2022-10-16T06:34:13;3.30;;;1.93;;
22665;SDS011;11499;49.486;11.104;2022-10-16T06:36:39;2.42;;;2.00;;
22665;SDS011;11499;49.486;11.104;2022-10-16T06:41:42;2.35;;;2.15;;
22665;SDS011;11499;49.486;11.104;2022-10-16T06:44:08;3.00;;;2.08;;
22665;SDS011;11499;49.486;11.104;2022-10-16T06:46:33;2.53;;;2.13;;
22665;SDS011;11499;49.486;11.104;2022-10-16T06:48:59;6.63;;;2.17;;
22665;SDS011;11499;49.486;11.104;2022-10-16T06:51:24;2.60;;;2.40;;
22665;SDS011;11499;49.486;11.104;2022-10-16T06:53:54;3.22;;;2.15;;
22665;SDS011;11499;49.486;11.104;2022-10-16T06:56:22;3.08;;;2.33;;
22665;SDS011;11499;49.486;11.104;2022-10-16T06:58:49;3.65;;;2.25;;
22665;SDS011;11499;49.486;11.104;2022-10-16T07:01:16;2.38;;;2.05;;
22665;SDS011;11499;49.486;11.104;2022-10-16T07:03:43;3.80;;;2.42;;
22665;SDS011;11499;49.486;11.104;2022-10-16T07:08:48;3.50;;;2.38;;
22665;SDS011;11499;49.486;11.104;2022-10-16T07:11:15;6.13;;;2.33;;
22665;SDS011;11499;49.486;11.104;2022-10-16T07:13:42;3.25;;;2.10;;
22665;SDS011;11499;49.486;11.104;2022-10-16T07:18:35;2.70;;;2.20;;
22665;SDS011;11499;49.486;11.104;2022-10-16T07:21:08;4.40;;;2.35;;
22665;SDS011;11499;49.486;11.104;2022-10-16T07:23:35;4.25;;;2.38;;
22665;SDS011;11499;49.486;11.104;2022-10-16T07:26:01;4.20;;;2.60;;
22665;SDS011;11499;49.486;11.104;2022-10-16T07:28:28;2.58;;;2.38;;
22665;SDS011;11499;49.486;11.104;2022-10-16T07:30:54;3.55;;;2.33;;
22665;SDS011;11499;49.486;11.104;2022-10-16T07:36:08;4.53;;;2.72;;
22665;SDS011;11499;49.486;11.104;2022-10-16T07:38:34;3.28;;;2.38;;
22665;SDS011;11499;49.486;11.104;2022-10-16T07:41:01;2.90;;;2.60;;
22665;SDS011;11499;49.486;11.104;2022-10-16T07:43:29;3.55;;;2.45;;
22665;SDS011;11499;49.486;11.104;2022-10-16T07:45:55;2.78;;;2.42;;
22665;SDS011;11499;49.486;11.104;2022-10-16T07:48:21;3.05;;;2.15;;
22665;SDS011;11499;49.486;11.104;2022-10-16T07:50:48;10.52;;;2.60;;
22665;SDS011;11499;49.486;11.104;2022-10-16T07:53:14;5.10;;;2.70;;
22665;SDS011;11499;49.486;11.104;2022-10-16T07:55:40;2.42;;;2.22;;
22665;SDS011;11499;49.486;11.104;2022-10-16T07:58:06;4.47;;;2.15;;
22665;SDS011;11499;49.486;11.104;2022-10-16T08:02:07;3.30;;;2.30;;
22665;SDS011;11499;49.486;11.104;2022-10-16T08:04:32;4.00;;;2.38;;
22665;SDS011;11499;49.486;11.104;2022-10-16T08:06:58;2.95;;;2.10;;
22665;SDS011;11499;49.486;11.104;2022-10-16T08:09:23;6.15;;;2.47;;
22665;SDS011;11499;49.486;11.104;2022-10-16T08:11:49;3.28;;;2.42;;
22665;SDS011;11499;49.486;11.104;2022-10-16T08:14:14;4.53;;;2.38;;
22665;SDS011;11499;49.486;11.104;2022-10-16T08:16:40;3.65;;;2.50;;
22665;SDS011;11499;49.486;11.104;2022-10-16T08:19:05;4.38;;;2.85;;
22665;SDS011;11499;49.486;11.104;2022-10-16T08:21:31;3.45;;;2.47;;
22665;SDS011;11499;49.486;11.104;2022-10-16T08:23:56;2.92;;;2.60;;
22665;SDS011;11499;49.486;11.104;2022-10-16T08:26:22;2.92;;;2.33;;
22665;SDS011;11499;49.486;11.104;2022-10-16T08:28:49;6.80;;;2.55;;
22665;SDS011;11499;49.486;11.104;2022-10-16T08:34:04;3.95;;;2.70;;
22665;SDS011;11499;49.486;11.104;2022-10-16T08:36:30;2.88;;;2.58;;
22665;SDS011;11499;49.486;11.104;2022-10-16T08:38:55;6.03;;;2.67;;
22665;SDS011;11499;49.486;11.104;2022-10-16T08:47:17;3.38;;;2.45;;
22665;SDS011;11499;49.486;11.104;2022-10-16T08:50:00;3.10;;;2.55;;
22665;SDS011;11499;49.486;11.104;2022-10-16T08:52:34;5.22;;;2.65;;
22665;SDS011;11499;49.486;11.104;2022-10-16T08:55:04;3.38;;;2.80;;
22665;SDS011;11499;49.486;11.104;2022-10-16T08:57:30;3.35;;;3.05;;
22665;SDS011;11499;49.486;11.104;2022-10-16T09:01:57;4.38;;;4.03;;
22665;SDS011;11499;49.486;11.104;2022-10-16T09:07:16;2.88;;;2.67;;
22665;SDS011;11499;49.486;11.104;2022-10-16T09:16:28;5.03;;;2.92;;
22665;SDS011;11499;49.486;11.104;2022-10-16T09:19:05;3.13;;;2.80;;
22665;SDS011;11499;49.486;11.104;2022-10-16T09:21:44;3.72;;;3.20;;
22665;SDS011;11499;49.486;11.104;2022-10-16T09:24:14;4.82;;;4.43;;
22665;SDS011;11499;49.486;11.104;2022-10-16T09:29:05;3.97;;;3.47;;
22665;SDS011;11499;49.486;11.104;2022-10-16T09:31:31;3.22;;;3.03;;
22665;SDS011;11499;49.486;11.104;2022-10-16T09:34:02;3.60;;;2.63;;
22665;SDS011;11499;49.486;11.104;2022-10-16T09:36:31;5.53;;;2.83;;
22665;SDS011;11499;49.486;11.104;2022-10-16T09:39:08;4.13;;;2.40;;
22665;SDS011;11499;49.486;11.104;2022-10-16T09:41:35;4.13;;;2.53;;
22665;SDS011;11499;49.486;11.104;2022-10-16T09:44:05;4.18;;;2.22;;
22665;SDS011;11499;49.486;11.104;2022-10-16T09:46:42;4.70;;;2.25;;
22665;SDS011;11499;49.486;11.104;2022-10-16T09:49:24;2.80;;;2.30;;
22665;SDS011;11499;49.486;11.104;2022-10-16T09:54:34;6.20;;;2.20;;
22665;SDS011;11499;49.486;11.104;2022-10-16T09:57:06;7.82;;;7.30;;
22665;SDS011;11499;49.486;11.104;2022-10-16T09:59:33;10.27;;;2.30;;
22665;SDS011;11499;49.486;11.104;2022-10-16T10:02:03;4.03;;;2.25;;
22665;SDS011;11499;49.486;11.104;2022-10-16T10:04:40;4.80;;;2.20;;
22665;SDS011;11499;49.486;11.104;2022-10-16T10:07:16;3.75;;;2.28;;
22665;SDS011;11499;49.486;11.104;2022-10-16T10:09:44;2.22;;;1.90;;
22665;SDS011;11499;49.486;11.104;2022-10-16T10:12:16;3.60;;;2.10;;
22665;SDS011;11499;49.486;11.104;2022-10-16T10:14:46;3.58;;;2.05;;
22665;SDS011;11499;49.486;11.104;2022-10-16T10:17:21;3.85;;;2.00;;
22665;SDS011;11499;49.486;11.104;2022-10-16T10:21:56;2.88;;;2.10;;
22665;SDS011;11499;49.486;11.104;2022-10-16T10:24:22;4.72;;;2.50;;
22665;SDS011;11499;49.486;11.104;2022-10-16T10:26:53;2.83;;;2.20;;
22665;SDS011;11499;49.486;11.104;2022-10-16T10:32:41;4.50;;;2.15;;
22665;SDS011;11499;49.486;11.104;2022-10-16T10:38:00;2.67;;;2.17;;
22665;SDS011;11499;49.486;11.104;2022-10-16T10:40:39;2.30;;;1.80;;
22665;SDS011;11499;49.486;11.104;2022-10-16T10:52:18;3.42;;;1.92;;
22665;SDS011;11499;49.486;11.104;2022-10-16T11:01:14;2.65;;;2.00;;
22665;SDS011;11499;49.486;11.104;2022-10-16T11:09:02;2.53;;;2.15;;
22665;SDS011;11499;49.486;11.104;2022-10-16T11:11:40;3.65;;;1.92;;
22665;SDS011;11499;49.486;11.104;2022-10-16T11:15:55;2.58;;;2.10;;
22665;SDS011;11499;49.486;11.104;2022-10-16T11:18:49;4.38;;;2.25;;
22665;SDS011;11499;49.486;11.104;2022-10-16T11:21:29;2.65;;;1.95;;
22665;SDS011;11499;49.486;11.104;2022-10-16T11:24:19;4.72;;;2.47;;
22665;SDS011;11499;49.486;11.104;2022-10-16T11:26:48;2.95;;;2.25;;
22665;SDS011;11499;49.486;11.104;2022-10-16T11:29:17;4.22;;;2.35;;
22665;SDS011;11499;49.486;11.104;2022-10-16T11:31:49;2.90;;;2.15;;
22665;SDS011;11499;49.486;11.104;2022-10-16T11:37:27;2.85;;;1.88;;
22665;SDS011;11499;49.486;11.104;2022-10-16T11:44:42;3.75;;;2.30;;
22665;SDS011;11499;49.486;11.104;2022-10-16T11:55:41;5.13;;;2.50;;
22665;SDS011;11499;49.486;11.104;2022-10-16T11:58:17;2.95;;;2.05;;
22665;SDS011;11499;49.486;11.104;2022-10-16T12:00:47;4.68;;;2.03;;
22665;SDS011;11499;49.486;11.104;2022-10-16T12:10:18;5.07;;;2.28;;
22665;SDS011;11499;49.486;11.104;2022-10-16T12:12:49;3.25;;;2.20;;
22665;SDS011;11499;49.486;11.104;2022-10-16T12:17:46;2.17;;;1.98;;
22665;SDS011;11499;49.486;11.104;2022-10-16T12:22:40;3.10;;;2.08;;
22665;SDS011;11499;49.486;11.104;2022-10-16T12:25:19;2.45;;;1.90;;
22665;SDS011;11499;49.486;11.104;2022-10-16T12:27:53;3.97;;;2.28;;
22665;SDS011;11499;49.486;11.104;2022-10-16T12:30:21;2.75;;;2.13;;
22665;SDS011;11499;49.486;11.104;2022-10-16T12:35:47;3.05;;;2.30;;
22665;SDS011;11499;49.486;11.104;2022-10-16T12:38:20;4.82;;;2.42;;
22665;SDS011;11499;49.486;11.104;2022-10-16T12:43:44;3.72;;;2.00;;
22665;SDS011;11499;49.486;11.104;2022-10-16T12:48:40;3.58;;;2.20;;
22665;SDS011;11499;49.486;11.104;2022-10-16T12:51:51;2.50;;;1.90;;
22665;SDS011;11499;49.486;11.104;2022-10-16T13:07:28;1.75;;;1.60;;
22665;SDS011;11499;49.486;11.104;2022-10-16T13:15:19;3.80;;;1.88;;
22665;SDS011;11499;49.486;11.104;2022-10-16T13:18:02;3.72;;;1.67;;
22665;SDS011;11499;49.486;11.104;2022-10-16T13:20:54;5.20;;;1.85;;
22665;SDS011;11499;49.486;11.104;2022-10-16T13:28:46;2.80;;;1.90;;
22665;SDS011;11499;49.486;11.104;2022-10-16T13:31:17;4.03;;;2.05;;
22665;SDS011;11499;49.486;11.104;2022-10-16T13:33:45;4.22;;;1.70;;
22665;SDS011;11499;49.486;11.104;2022-10-16T13:36:18;2.00;;;1.77;;
22665;SDS011;11499;49.486;11.104;2022-10-16T13:38:46;2.80;;;1.65;;
22665;SDS011;11499;49.486;11.104;2022-10-16T13:41:16;3.45;;;2.08;;
22665;SDS011;11499;49.486;11.104;2022-10-16T13:43:43;4.25;;;2.10;;
22665;SDS011;11499;49.486;11.104;2022-10-16T13:46:16;4.53;;;1.80;;
22665;SDS011;11499;49.486;11.104;2022-10-16T13:49:05;3.97;;;2.03;;
22665;SDS011;11499;49.486;11.104;2022-10-16T13:53:49;5.47;;;2.25;;
22665;SDS011;11499;49.486;11.104;2022-10-16T13:56:16;5.45;;;2.00;;
22665;SDS011;11499;49.486;11.104;2022-10-16T13:58:44;3.28;;;1.98;;
22665;SDS011;11499;49.486;11.104;2022-10-16T14:01:17;4.32;;;1.80;;
22665;SDS011;11499;49.486;11.104;2022-10-16T14:03:47;3.10;;;1.80;;
22665;SDS011;11499;49.486;11.104;2022-10-16T14:06:15;2.90;;;1.88;;
22665;SDS011;11499;49.486;11.104;2022-10-16T14:08:44;4.43;;;2.00;;
22665;SDS011;11499;49.486;11.104;2022-10-16T14:11:13;2.75;;;1.63;;
22665;SDS011;11499;49.486;11.104;2022-10-16T14:13:46;3.85;;;1.80;;
22665;SDS011;11499;49.486;11.104;2022-10-16T14:16:16;4.05;;;2.00;;
22665;SDS011;11499;49.486;11.104;2022-10-16T14:20:32;1.83;;;1.50;;
22665;SDS011;11499;49.486;11.104;2022-10-16T14:23:00;3.58;;;2.03;;
22665;SDS011;11499;49.486;11.104;2022-10-16T14:25:44;3.20;;;2.20;;
22665;SDS011;11499;49.486;11.104;2022-10-16T14:30:48;3.45;;;1.70;;
22665;SDS011;11499;49.486;11.104;2022-10-16T14:35:59;3.05;;;1.77;;
22665;SDS011;11499;49.486;11.104;2022-10-16T14:38:27;5.57;;;1.88;;
22665;SDS011;11499;49.486;11.104;2022-10-16T14:40:54;3.75;;;1.65;;
22665;SDS011;11499;49.486;11.104;2022-10-16T14:45:58;7.18;;;2.20;;
22665;SDS011;11499;49.486;11.104;2022-10-16T14:48:24;2.20;;;1.88;;
22665;SDS011;11499;49.486;11.104;2022-10-16T14:50:50;7.57;;;2.15;;
22665;SDS011;11499;49.486;11.104;2022-10-16T14:53:16;6.20;;;2.08;;
22665;SDS011;11499;49.486;11.104;2022-10-16T14:55:41;3.15;;;1.70;;
22665;SDS011;11499;49.486;11.104;2022-10-16T14:58:10;2.58;;;1.83;;
22665;SDS011;11499;49.486;11.104;2022-10-16T15:00:43;3.63;;;1.80;;
22665;SDS011;11499;49.486;11.104;2022-10-16T15:03:09;6.35;;;2.10;;
22665;SDS011;11499;49.486;11.104;2022-10-16T15:05:35;3.10;;;2.00;;
22665;SDS011;11499;49.486;11.104;2022-10-16T15:08:01;1.85;;;1.75;;
22665;SDS011;11499;49.486;11.104;2022-10-16T15:13:09;2.35;;;2.00;;
22665;SDS011;11499;49.486;11.104;2022-10-16T15:15:46;4.00;;;1.92;;
22665;SDS011;11499;49.486;11.104;2022-10-16T15:18:14;3.72;;;1.83;;
22665;SDS011;11499;49.486;11.104;2022-10-16T15:20:44;4.13;;;2.05;;
22665;SDS011;11499;49.486;11.104;2022-10-16T15:23:16;5.93;;;2.30;;
22665;SDS011;11499;49.486;11.104;2022-10-16T15:25:44;2.63;;;2.10;;
22665;SDS011;11499;49.486;11.104;2022-10-16T15:28:13;4.18;;;2.30;;
22665;SDS011;11499;49.486;11.104;2022-10-16T15:30:40;2.83;;;1.90;;
22665;SDS011;11499;49.486;11.104;2022-10-16T15:33:10;3.17;;;2.10;;
22665;SDS011;11499;49.486;11.104;2022-10-16T15:35:41;2.25;;;2.00;;
22665;SDS011;11499;49.486;11.104;2022-10-16T15:40:46;7.18;;;3.35;;
22665;SDS011;11499;49.486;11.104;2022-10-16T15:43:12;8.18;;;5.38;;
22665;SDS011;11499;49.486;11.104;2022-10-16T15:45:38;6.00;;;4.70;;
22665;SDS011;11499;49.486;11.104;2022-10-16T15:48:04;55.40;;;31.73;;
22665;SDS011;11499;49.486;11.104;2022-10-16T15:50:30;23.10;;;15.45;;
22665;SDS011;11499;49.486;11.104;2022-10-16T15:52:56;15.13;;;9.68;;
22665;SDS011;11499;49.486;11.104;2022-10-16T15:55:22;8.18;;;7.22;;
22665;SDS011;11499;49.486;11.104;2022-10-16T15:57:47;10.30;;;7.50;;
22665;SDS011;11499;49.486;11.104;2022-10-16T16:00:14;13.10;;;6.20;;
22665;SDS011;11499;49.486;11.104;2022-10-16T16:02:43;6.50;;;5.68;;
22665;SDS011;11499;49.486;11.104;2022-10-16T16:08:08;8.98;;;6.72;;
22665;SDS011;11499;49.486;11.104;2022-10-16T16:10:34;8.05;;;6.75;;
22665;SDS011;11499;49.486;11.104;2022-10-16T16:12:59;11.05;;;6.63;;
22665;SDS011;11499;49.486;11.104;2022-10-16T16:15:25;8.40;;;5.03;;
22665;SDS011;11499;49.486;11.104;2022-10-16T16:17:50;8.93;;;4.45;;
22665;SDS011;11499;49.486;11.104;2022-10-16T16:20:16;7.57;;;3.85;;
22665;SDS011;11499;49.486;11.104;2022-10-16T16:22:41;7.80;;;4.00;;
22665;SDS011;11499;49.486;11.104;2022-10-16T16:25:07;5.45;;;3.55;;
22665;SDS011;11499;49.486;11.104;2022-10-16T16:27:33;6.32;;;3.53;;
22665;SDS011;11499;49.486;11.104;2022-10-16T16:29:59;4.65;;;3.40;;
22665;SDS011;11499;49.486;11.104;2022-10-16T16:35:07;10.18;;;4.25;;
22665;SDS011;11499;49.486;11.104;2022-10-16T16:37:33;4.60;;;4.20;;
22665;SDS011;11499;49.486;11.104;2022-10-16T16:39:59;3.95;;;3.28;;
22665;SDS011;11499;49.486;11.104;2022-10-16T16:42:27;5.00;;;3.42;;
22665;SDS011;11499;49.486;11.104;2022-10-16T16:44:53;5.60;;;3.72;;
22665;SDS011;11499;49.486;11.104;2022-10-16T16:47:18;6.18;;;4.07;;
22665;SDS011;11499;49.486;11.104;2022-10-16T16:49:44;7.35;;;4.40;;
22665;SDS011;11499;49.486;11.104;2022-10-16T16:52:11;9.63;;;4.60;;
22665;SDS011;11499;49.486;11.104;2022-10-16T16:54:37;7.75;;;4.93;;
22665;SDS011;11499;49.486;11.104;2022-10-16T16:57:03;7.75;;;5.25;;
22665;SDS011;11499;49.486;11.104;2022-10-16T17:02:11;9.55;;;5.50;;
22665;SDS011;11499;49.486;11.104;2022-10-16T17:04:36;9.10;;;6.45;;
22665;SDS011;11499;49.486;11.104;2022-10-16T17:07:02;13.77;;;10.15;;
22665;SDS011;11499;49.486;11.104;2022-10-16T17:09:27;13.07;;;10.48;;
22665;SDS011;11499;49.486;11.104;2022-10-16T17:11:53;11.50;;;7.28;;
22665;SDS011;11499;49.486;11.104;2022-10-16T17:14:18;16.15;;;11.68;;
22665;SDS011;11499;49.486;11.104;2022-10-16T17:16:44;11.27;;;8.63;;
22665;SDS011;11499;49.486;11.104;2022-10-16T17:19:12;14.32;;;9.77;;
22665;SDS011;11499;49.486;11.104;2022-10-16T17:21:40;11.15;;;8.43;;
22665;SDS011;11499;49.486;11.104;2022-10-16T17:27:38;10.25;;;6.70;;
22665;SDS011;11499;49.486;11.104;2022-10-16T17:30:03;8.52;;;5.90;;
22665;SDS011;11499;49.486;11.104;2022-10-16T17:32:30;6.78;;;5.43;;
22665;SDS011;11499;49.486;11.104;2022-10-16T17:34:55;4.70;;;4.30;;
22665;SDS011;11499;49.486;11.104;2022-10-16T17:37:21;6.13;;;4.45;;
22665;SDS011;11499;49.486;11.104;2022-10-16T17:39:48;5.28;;;4.50;;
22665;SDS011;11499;49.486;11.104;2022-10-16T17:42:15;6.30;;;3.88;;
22665;SDS011;11499;49.486;11.104;2022-10-16T17:44:40;4.93;;;3.38;;
22665;SDS011;11499;49.486;11.104;2022-10-16T17:47:06;4.65;;;3.40;;
22665;SDS011;11499;49.486;11.104;2022-10-16T17:52:13;7.53;;;4.85;;
22665;SDS011;11499;49.486;11.104;2022-10-16T17:54:39;7.05;;;4.15;;
22665;SDS011;11499;49.486;11.104;2022-10-16T17:57:05;4.45;;;3.95;;
22665;SDS011;11499;49.486;11.104;2022-10-16T17:59:30;4.45;;;4.05;;
22665;SDS011;11499;49.486;11.104;2022-10-16T18:01:56;5.00;;;4.50;;
22665;SDS011;11499;49.486;11.104;2022-10-16T18:04:21;5.90;;;5.35;;
22665;SDS011;11499;49.486;11.104;2022-10-16T18:06:47;14.20;;;13.20;;
22665;SDS011;11499;49.486;11.104;2022-10-16T18:09:13;5.65;;;4.82;;